CheckWX is a tool to help pilots better visualize weather data.  It is not intended as a substitute for an official pre-flight weather briefing.

07:29:53 UTC

OISF METAR
Fasa Airport
Fasa, Iran
Current

30 mins ago

OISF 050700Z 18010KT CAVOK 37/04 Q1003 A2962
Observed
Jul-5 @ 07:00 UTC
Wind
  • 180° at 10 KTS
Visibility
10,000+ meters
Flight Rules
VFR
Cloud Levels
  • Clear skies
Temperature
37°C / 99°F
Dewpoint
C / 39°F
Humidity
13%
Altimeter
29.62" Hg
Pressure
1002.92 hPa
Previous

1 hour ago

OISF 050600Z 06004KT CAVOK 36/02 Q1003 A2963
Observed
Jul-5 @ 06:00 UTC
Wind
  • 060° at 4 KTS
Visibility
10,000+ meters
Flight Rules
VFR
Cloud Levels
  • Clear skies
Temperature
36°C / 97°F
Dewpoint
C / 36°F
Humidity
12%
Altimeter
29.62" Hg
Pressure
1002.92 hPa
Previous

2 hours ago

OISF 050500Z 24004KT CAVOK 34/05 Q1003 A2963
Observed
Jul-5 @ 05:00 UTC
Wind
  • 240° at 4 KTS
Visibility
10,000+ meters
Flight Rules
VFR
Cloud Levels
  • Clear skies
Temperature
34°C / 93°F
Dewpoint
C / 41°F
Humidity
16%
Altimeter
29.62" Hg
Pressure
1002.92 hPa